sensor_id;sensor_type;location;lat;lon;timestamp;pressure;altitude;pressure_sealevel;temperature;humidity
57900;BME280;60605;53.716;19.940;2023-02-18T00:00:03;98801.53;;;6.25;100.00
57900;BME280;60605;53.716;19.940;2023-02-18T00:05:28;98803.06;;;6.24;100.00
57900;BME280;60605;53.716;19.940;2023-02-18T00:10:31;98804.80;;;6.26;100.00
57900;BME280;60605;53.716;19.940;2023-02-18T00:15:35;98811.43;;;6.29;100.00
57900;BME280;60605;53.716;19.940;2023-02-18T00:20:39;98816.90;;;6.32;100.00
57900;BME280;60605;53.716;19.940;2023-02-18T00:25:42;98808.67;;;6.38;100.00
57900;BME280;60605;53.716;19.940;2023-02-18T00:30:45;98813.19;;;6.45;100.00
57900;BME280;60605;53.716;19.940;2023-02-18T00:35:48;98824.84;;;6.54;100.00
57900;BME280;60605;53.716;19.940;2023-02-18T00:40:51;98826.44;;;6.60;100.00
57900;BME280;60605;53.716;19.940;2023-02-18T00:45:55;98817.34;;;6.64;99.65
57900;BME280;60605;53.716;19.940;2023-02-18T00:50:58;98814.99;;;6.71;98.58
57900;BME280;60605;53.716;19.940;2023-02-18T00:56:04;98825.96;;;6.76;97.05
57900;BME280;60605;53.716;19.940;2023-02-18T01:01:09;98829.39;;;6.79;96.21
57900;BME280;60605;53.716;19.940;2023-02-18T01:06:13;98822.14;;;6.82;94.52
57900;BME280;60605;53.716;19.940;2023-02-18T01:11:16;98824.73;;;6.83;94.19
57900;BME280;60605;53.716;19.940;2023-02-18T01:16:19;98820.05;;;6.82;92.89
57900;BME280;60605;53.716;19.940;2023-02-18T01:21:23;98821.27;;;6.82;91.77
57900;BME280;60605;53.716;19.940;2023-02-18T01:26:26;98833.88;;;6.82;91.48
57900;BME280;60605;53.716;19.940;2023-02-18T01:31:29;98827.45;;;6.79;90.75
57900;BME280;60605;53.716;19.940;2023-02-18T01:36:33;98838.87;;;6.78;89.90
57900;BME280;60605;53.716;19.940;2023-02-18T01:41:36;98836.64;;;6.78;89.59
57900;BME280;60605;53.716;19.940;2023-02-18T01:46:39;98843.89;;;6.76;89.37
57900;BME280;60605;53.716;19.940;2023-02-18T01:51:45;98844.27;;;6.75;88.75
57900;BME280;60605;53.716;19.940;2023-02-18T02:02:06;98836.92;;;6.72;88.46
57900;BME280;60605;53.716;19.940;2023-02-18T02:07:10;98834.55;;;6.71;88.11
57900;BME280;60605;53.716;19.940;2023-02-18T02:28:36;98854.05;;;6.69;86.65
57900;BME280;60605;53.716;19.940;2023-02-18T02:39:24;98867.80;;;6.65;85.90
57900;BME280;60605;53.716;19.940;2023-02-18T02:44:37;98885.17;;;6.65;85.63
57900;BME280;60605;53.716;19.940;2023-02-18T02:49:56;98892.64;;;6.63;85.64
57900;BME280;60605;53.716;19.940;2023-02-18T02:55:07;98890.45;;;6.62;83.77
57900;BME280;60605;53.716;19.940;2023-02-18T03:00:14;98904.79;;;6.64;83.39
57900;BME280;60605;53.716;19.940;2023-02-18T03:05:46;98908.48;;;6.63;83.51
57900;BME280;60605;53.716;19.940;2023-02-18T03:11:12;98919.70;;;6.59;83.75
57900;BME280;60605;53.716;19.940;2023-02-18T03:16:45;98916.46;;;6.56;82.82
57900;BME280;60605;53.716;19.940;2023-02-18T03:22:04;98919.09;;;6.55;82.34
57900;BME280;60605;53.716;19.940;2023-02-18T03:27:11;98922.37;;;6.52;81.94
57900;BME280;60605;53.716;19.940;2023-02-18T03:32:18;98923.17;;;6.52;81.47
57900;BME280;60605;53.716;19.940;2023-02-18T03:37:23;98926.56;;;6.52;80.98
57900;BME280;60605;53.716;19.940;2023-02-18T03:42:27;98917.80;;;6.50;80.76
57900;BME280;60605;53.716;19.940;2023-02-18T03:47:31;98926.38;;;6.48;80.12
57900;BME280;60605;53.716;19.940;2023-02-18T03:52:35;98931.02;;;6.46;79.62
57900;BME280;60605;53.716;19.940;2023-02-18T03:57:38;98934.34;;;6.45;78.95
57900;BME280;60605;53.716;19.940;2023-02-18T04:02:41;98944.02;;;6.44;78.58
57900;BME280;60605;53.716;19.940;2023-02-18T04:07:45;98947.80;;;6.42;78.58
57900;BME280;60605;53.716;19.940;2023-02-18T04:12:48;98955.92;;;6.39;78.99
57900;BME280;60605;53.716;19.940;2023-02-18T04:17:51;98950.27;;;6.36;78.50
57900;BME280;60605;53.716;19.940;2023-02-18T04:22:54;98950.94;;;6.34;78.42
57900;BME280;60605;53.716;19.940;2023-02-18T04:27:58;98955.36;;;6.32;78.40
57900;BME280;60605;53.716;19.940;2023-02-18T04:33:01;98950.46;;;6.32;78.73
57900;BME280;60605;53.716;19.940;2023-02-18T04:38:04;98955.33;;;6.29;79.03
57900;BME280;60605;53.716;19.940;2023-02-18T04:43:07;98967.58;;;6.26;79.50
57900;BME280;60605;53.716;19.940;2023-02-18T04:48:10;98964.04;;;6.22;79.70
57900;BME280;60605;53.716;19.940;2023-02-18T04:53:13;98971.64;;;6.19;79.84
57900;BME280;60605;53.716;19.940;2023-02-18T04:58:17;98980.95;;;6.18;80.04
57900;BME280;60605;53.716;19.940;2023-02-18T05:03:21;98974.83;;;6.16;80.39
57900;BME280;60605;53.716;19.940;2023-02-18T05:08:24;98986.29;;;6.13;80.50
57900;BME280;60605;53.716;19.940;2023-02-18T05:13:27;98982.67;;;6.10;80.68
57900;BME280;60605;53.716;19.940;2023-02-18T05:18:30;98994.34;;;6.07;81.20
57900;BME280;60605;53.716;19.940;2023-02-18T05:23:33;99006.84;;;6.03;81.89
57900;BME280;60605;53.716;19.940;2023-02-18T05:28:37;99012.16;;;5.98;82.01
57900;BME280;60605;53.716;19.940;2023-02-18T05:33:40;99025.22;;;5.95;82.41
57900;BME280;60605;53.716;19.940;2023-02-18T05:38:44;99031.60;;;5.91;82.51
57900;BME280;60605;53.716;19.940;2023-02-18T05:43:47;99036.83;;;5.90;82.34
57900;BME280;60605;53.716;19.940;2023-02-18T05:49:09;99037.36;;;5.90;82.26
57900;BME280;60605;53.716;19.940;2023-02-18T05:54:13;99039.12;;;5.90;82.43
57900;BME280;60605;53.716;19.940;2023-02-18T05:59:17;99041.92;;;5.91;82.29
57900;BME280;60605;53.716;19.940;2023-02-18T06:04:20;99056.56;;;5.90;82.51
57900;BME280;60605;53.716;19.940;2023-02-18T06:09:24;99065.23;;;5.88;82.38
57900;BME280;60605;53.716;19.940;2023-02-18T06:14:27;99070.25;;;5.89;81.94
57900;BME280;60605;53.716;19.940;2023-02-18T06:19:31;99080.90;;;5.91;81.85
57900;BME280;60605;53.716;19.940;2023-02-18T06:24:34;99090.55;;;5.90;82.20
57900;BME280;60605;53.716;19.940;2023-02-18T06:29:37;99094.67;;;5.89;82.25
57900;BME280;60605;53.716;19.940;2023-02-18T06:34:40;99096.11;;;5.91;82.35
57900;BME280;60605;53.716;19.940;2023-02-18T06:39:43;99105.11;;;5.93;82.33
57900;BME280;60605;53.716;19.940;2023-02-18T06:44:46;99110.44;;;5.97;82.06
57900;BME280;60605;53.716;19.940;2023-02-18T06:49:49;99115.17;;;6.06;81.89
57900;BME280;60605;53.716;19.940;2023-02-18T06:54:52;99114.86;;;6.21;81.21
57900;BME280;60605;53.716;19.940;2023-02-18T06:59:56;99122.38;;;6.29;80.38
57900;BME280;60605;53.716;19.940;2023-02-18T07:04:59;99131.68;;;6.32;80.57
57900;BME280;60605;53.716;19.940;2023-02-18T07:10:04;99131.77;;;6.41;79.89
57900;BME280;60605;53.716;19.940;2023-02-18T07:15:08;99136.66;;;6.63;79.55
57900;BME280;60605;53.716;19.940;2023-02-18T07:20:14;99140.44;;;6.84;78.54
57900;BME280;60605;53.716;19.940;2023-02-18T07:25:17;99144.54;;;7.03;78.29
57900;BME280;60605;53.716;19.940;2023-02-18T07:30:22;99147.99;;;7.33;77.24
57900;BME280;60605;53.716;19.940;2023-02-18T07:35:25;99158.95;;;7.99;75.47
57900;BME280;60605;53.716;19.940;2023-02-18T07:40:29;99155.70;;;8.70;74.14
57900;BME280;60605;53.716;19.940;2023-02-18T07:45:32;99162.10;;;9.39;71.68
57900;BME280;60605;53.716;19.940;2023-02-18T07:50:39;99160.71;;;9.36;69.43
57900;BME280;60605;53.716;19.940;2023-02-18T07:55:42;99165.89;;;8.90;69.58
57900;BME280;60605;53.716;19.940;2023-02-18T08:00:52;99179.89;;;8.52;70.62
57900;BME280;60605;53.716;19.940;2023-02-18T08:05:57;99183.02;;;8.27;70.96
57900;BME280;60605;53.716;19.940;2023-02-18T08:11:01;99191.60;;;8.18;71.41
57900;BME280;60605;53.716;19.940;2023-02-18T08:16:21;99198.64;;;8.22;70.97
57900;BME280;60605;53.716;19.940;2023-02-18T08:21:25;99205.53;;;8.23;71.21
57900;BME280;60605;53.716;19.940;2023-02-18T08:26:28;99211.81;;;8.27;71.38
57900;BME280;60605;53.716;19.940;2023-02-18T08:31:32;99213.06;;;8.24;70.40
57900;BME280;60605;53.716;19.940;2023-02-18T08:36:36;99219.31;;;8.15;70.30
57900;BME280;60605;53.716;19.940;2023-02-18T08:41:39;99217.14;;;8.09;70.46
57900;BME280;60605;53.716;19.940;2023-02-18T08:46:43;99219.47;;;8.07;70.57
57900;BME280;60605;53.716;19.940;2023-02-18T08:51:46;99213.86;;;8.42;69.74
57900;BME280;60605;53.716;19.940;2023-02-18T08:56:53;99216.02;;;9.69;67.91
57900;BME280;60605;53.716;19.940;2023-02-18T09:01:57;99224.05;;;11.36;63.56
57900;BME280;60605;53.716;19.940;2023-02-18T09:07:02;99229.36;;;11.72;61.70
57900;BME280;60605;53.716;19.940;2023-02-18T09:12:05;99236.55;;;11.91;59.87
57900;BME280;60605;53.716;19.940;2023-02-18T09:17:09;99245.66;;;11.88;59.47
57900;BME280;60605;53.716;19.940;2023-02-18T09:22:12;99240.52;;;11.70;59.48
57900;BME280;60605;53.716;19.940;2023-02-18T09:27:15;99251.40;;;12.45;57.74
57900;BME280;60605;53.716;19.940;2023-02-18T09:32:19;99263.95;;;12.86;56.23
57900;BME280;60605;53.716;19.940;2023-02-18T09:37:36;99271.13;;;12.70;55.79
57900;BME280;60605;53.716;19.940;2023-02-18T09:42:40;99279.06;;;12.51;55.31
57900;BME280;60605;53.716;19.940;2023-02-18T09:47:44;99270.84;;;12.52;55.45
57900;BME280;60605;53.716;19.940;2023-02-18T09:52:48;99276.92;;;12.19;55.47
57900;BME280;60605;53.716;19.940;2023-02-18T09:57:53;99281.19;;;11.71;55.93
57900;BME280;60605;53.716;19.940;2023-02-18T10:03:20;99286.12;;;11.15;57.25
57900;BME280;60605;53.716;19.940;2023-02-18T10:08:26;99294.08;;;10.54;58.13
57900;BME280;60605;53.716;19.940;2023-02-18T10:13:33;99287.64;;;10.03;59.66
57900;BME280;60605;53.716;19.940;2023-02-18T10:18:41;99288.23;;;9.93;60.42
57900;BME280;60605;53.716;19.940;2023-02-18T10:24:01;99289.63;;;9.90;60.21
57900;BME280;60605;53.716;19.940;2023-02-18T10:29:14;99291.24;;;9.51;61.26
57900;BME280;60605;53.716;19.940;2023-02-18T10:34:40;99298.52;;;9.25;61.39
57900;BME280;60605;53.716;19.940;2023-02-18T10:51:21;99300.16;;;9.10;64.05
57900;BME280;60605;53.716;19.940;2023-02-18T10:56:49;99301.10;;;9.17;63.99
57900;BME280;60605;53.716;19.940;2023-02-18T11:02:16;99294.14;;;9.05;64.60
57900;BME280;60605;53.716;19.940;2023-02-18T11:07:31;99292.46;;;8.82;64.53
57900;BME280;60605;53.716;19.940;2023-02-18T11:13:03;99290.33;;;8.48;65.12
57900;BME280;60605;53.716;19.940;2023-02-18T11:23:28;99299.38;;;8.10;67.20
57900;BME280;60605;53.716;19.940;2023-02-18T11:33:49;99293.86;;;8.10;67.11
57900;BME280;60605;53.716;19.940;2023-02-18T11:38:57;99291.16;;;8.09;66.72
57900;BME280;60605;53.716;19.940;2023-02-18T11:44:05;99280.27;;;8.06;66.80
57900;BME280;60605;53.716;19.940;2023-02-18T11:49:21;99282.06;;;8.22;67.57
57900;BME280;60605;53.716;19.940;2023-02-18T11:54:27;99281.78;;;8.51;67.69
57900;BME280;60605;53.716;19.940;2023-02-18T11:59:36;99272.70;;;8.77;66.48
57900;BME280;60605;53.716;19.940;2023-02-18T12:05:09;99271.20;;;8.99;66.45
57900;BME280;60605;53.716;19.940;2023-02-18T12:10:36;99267.73;;;9.07;66.42
57900;BME280;60605;53.716;19.940;2023-02-18T13:15:05;99217.45;;;7.60;69.58
57900;BME280;60605;53.716;19.940;2023-02-18T13:21:12;99218.48;;;7.60;69.48
57900;BME280;60605;53.716;19.940;2023-02-18T13:26:11;99216.89;;;7.60;69.67
57900;BME280;60605;53.716;19.940;2023-02-18T13:41:37;99215.55;;;7.62;69.58
57900;BME280;60605;53.716;19.940;2023-02-18T13:51:54;99207.44;;;7.57;69.22
57900;BME280;60605;53.716;19.940;2023-02-18T13:57:04;99208.85;;;7.57;69.07
57900;BME280;60605;53.716;19.940;2023-02-18T14:17:41;99200.50;;;7.49;67.76
57900;BME280;60605;53.716;19.940;2023-02-18T14:22:47;99194.98;;;7.45;68.56
57900;BME280;60605;53.716;19.940;2023-02-18T14:27:52;99190.40;;;7.40;68.14
57900;BME280;60605;53.716;19.940;2023-02-18T14:32:58;99188.59;;;7.33;68.17
57900;BME280;60605;53.716;19.940;2023-02-18T14:44:02;99193.83;;;7.21;68.90
57900;BME280;60605;53.716;19.940;2023-02-18T14:54:37;99199.02;;;7.05;69.93
57900;BME280;60605;53.716;19.940;2023-02-18T14:59:43;99196.00;;;6.98;70.34
57900;BME280;60605;53.716;19.940;2023-02-18T15:04:49;99192.69;;;6.91;71.00
57900;BME280;60605;53.716;19.940;2023-02-18T15:09:53;99188.64;;;6.83;71.37
57900;BME280;60605;53.716;19.940;2023-02-18T15:15:02;99179.39;;;6.77;71.88
57900;BME280;60605;53.716;19.940;2023-02-18T15:20:10;99179.15;;;6.70;72.17
57900;BME280;60605;53.716;19.940;2023-02-18T15:25:15;99180.39;;;6.63;72.32
57900;BME280;60605;53.716;19.940;2023-02-18T15:30:28;99181.05;;;6.57;72.65
57900;BME280;60605;53.716;19.940;2023-02-18T15:35:34;99181.05;;;6.50;72.92
57900;BME280;60605;53.716;19.940;2023-02-18T15:40:37;99184.04;;;6.42;73.29
57900;BME280;60605;53.716;19.940;2023-02-18T15:45:44;99183.98;;;6.33;73.49
57900;BME280;60605;53.716;19.940;2023-02-18T15:50:50;99185.84;;;6.26;73.89
57900;BME280;60605;53.716;19.940;2023-02-18T15:55:55;99185.80;;;6.17;74.47
57900;BME280;60605;53.716;19.940;2023-02-18T16:01:06;99189.38;;;6.12;74.86
57900;BME280;60605;53.716;19.940;2023-02-18T16:11:22;99196.15;;;5.99;75.64
57900;BME280;60605;53.716;19.940;2023-02-18T16:16:30;99190.30;;;5.94;76.14
57900;BME280;60605;53.716;19.940;2023-02-18T16:21:38;99190.33;;;5.86;76.68
57900;BME280;60605;53.716;19.940;2023-02-18T16:26:42;99194.55;;;5.77;77.14
57900;BME280;60605;53.716;19.940;2023-02-18T16:31:47;99196.72;;;5.68;77.67
57900;BME280;60605;53.716;19.940;2023-02-18T16:36:51;99196.40;;;5.58;78.20
57900;BME280;60605;53.716;19.940;2023-02-18T16:42:14;99198.96;;;5.48;78.77
57900;BME280;60605;53.716;19.940;2023-02-18T16:47:18;99204.24;;;5.41;79.48
57900;BME280;60605;53.716;19.940;2023-02-18T16:52:22;99217.81;;;5.38;79.94
57900;BME280;60605;53.716;19.940;2023-02-18T16:57:25;99222.58;;;5.36;80.42
57900;BME280;60605;53.716;19.940;2023-02-18T17:02:30;99226.98;;;5.36;80.93
57900;BME280;60605;53.716;19.940;2023-02-18T17:07:35;99231.58;;;5.37;81.92
57900;BME280;60605;53.716;19.940;2023-02-18T17:12:38;99237.11;;;5.36;82.83
57900;BME280;60605;53.716;19.940;2023-02-18T17:17:44;99238.71;;;5.34;83.66
57900;BME280;60605;53.716;19.940;2023-02-18T17:22:47;99244.33;;;5.31;84.49
57900;BME280;60605;53.716;19.940;2023-02-18T17:27:51;99248.42;;;5.29;85.50
57900;BME280;60605;53.716;19.940;2023-02-18T17:32:54;99258.44;;;5.28;86.10
57900;BME280;60605;53.716;19.940;2023-02-18T17:37:58;99258.79;;;5.24;86.54
57900;BME280;60605;53.716;19.940;2023-02-18T17:43:01;99267.13;;;5.19;86.83
57900;BME280;60605;53.716;19.940;2023-02-18T17:48:05;99272.98;;;5.11;87.45
57900;BME280;60605;53.716;19.940;2023-02-18T17:53:09;99288.08;;;5.05;87.87
57900;BME280;60605;53.716;19.940;2023-02-18T17:58:13;99302.66;;;5.00;88.18
57900;BME280;60605;53.716;19.940;2023-02-18T18:03:18;99303.51;;;4.95;88.42
57900;BME280;60605;53.716;19.940;2023-02-18T18:08:22;99307.37;;;4.90;88.64
57900;BME280;60605;53.716;19.940;2023-02-18T18:13:28;99318.31;;;4.84;89.11
57900;BME280;60605;53.716;19.940;2023-02-18T18:18:34;99329.18;;;4.80;89.45
57900;BME280;60605;53.716;19.940;2023-02-18T18:23:38;99334.54;;;4.75;89.59
57900;BME280;60605;53.716;19.940;2023-02-18T18:28:41;99342.85;;;4.67;89.50
57900;BME280;60605;53.716;19.940;2023-02-18T18:33:45;99348.27;;;4.57;89.65
57900;BME280;60605;53.716;19.940;2023-02-18T18:38:53;99358.40;;;4.46;90.11
57900;BME280;60605;53.716;19.940;2023-02-18T18:43:57;99359.42;;;4.41;90.73
57900;BME280;60605;53.716;19.940;2023-02-18T18:49:00;99365.86;;;4.38;90.94
57900;BME280;60605;53.716;19.940;2023-02-18T18:54:04;99371.00;;;4.36;91.06
57900;BME280;60605;53.716;19.940;2023-02-18T18:59:07;99371.61;;;4.35;91.12
57900;BME280;60605;53.716;19.940;2023-02-18T19:04:11;99377.50;;;4.34;91.22
57900;BME280;60605;53.716;19.940;2023-02-18T19:09:15;99383.59;;;4.34;91.35
57900;BME280;60605;53.716;19.940;2023-02-18T19:14:19;99383.52;;;4.31;91.35
57900;BME280;60605;53.716;19.940;2023-02-18T19:19:24;99388.27;;;4.23;91.35
57900;BME280;60605;53.716;19.940;2023-02-18T19:24:27;99393.35;;;4.13;91.72
57900;BME280;60605;53.716;19.940;2023-02-18T19:29:30;99397.11;;;4.07;92.07
57900;BME280;60605;53.716;19.940;2023-02-18T19:34:33;99399.05;;;3.99;92.23
57900;BME280;60605;53.716;19.940;2023-02-18T19:39:37;99398.61;;;3.88;92.61
57900;BME280;60605;53.716;19.940;2023-02-18T19:44:40;99402.03;;;3.77;93.20
57900;BME280;60605;53.716;19.940;2023-02-18T19:49:43;99404.58;;;3.68;93.96
57900;BME280;60605;53.716;19.940;2023-02-18T19:54:47;99403.77;;;3.63;94.81
57900;BME280;60605;53.716;19.940;2023-02-18T19:59:50;99410.57;;;3.58;95.38
57900;BME280;60605;53.716;19.940;2023-02-18T20:04:53;99414.39;;;3.52;95.84
57900;BME280;60605;53.716;19.940;2023-02-18T20:09:58;99415.30;;;3.46;96.54
57900;BME280;60605;53.716;19.940;2023-02-18T20:15:01;99415.09;;;3.40;97.08
57900;BME280;60605;53.716;19.940;2023-02-18T20:20:05;99422.97;;;3.32;97.58
57900;BME280;60605;53.716;19.940;2023-02-18T20:25:12;99434.56;;;3.25;98.01
57900;BME280;60605;53.716;19.940;2023-02-18T20:30:18;99445.05;;;3.18;98.30
57900;BME280;60605;53.716;19.940;2023-02-18T20:35:24;99447.61;;;3.12;99.01
57900;BME280;60605;53.716;19.940;2023-02-18T20:40:29;99453.43;;;3.08;99.36
57900;BME280;60605;53.716;19.940;2023-02-18T20:45:33;99459.11;;;3.03;99.65
57900;BME280;60605;53.716;19.940;2023-02-18T20:50:36;99464.23;;;2.99;99.95
57900;BME280;60605;53.716;19.940;2023-02-18T20:55:44;99467.23;;;3.01;100.00
57900;BME280;60605;53.716;19.940;2023-02-18T21:00:59;99478.86;;;3.08;100.00
57900;BME280;60605;53.716;19.940;2023-02-18T21:06:13;99487.95;;;3.15;100.00
57900;BME280;60605;53.716;19.940;2023-02-18T21:11:23;99492.20;;;3.21;100.00
57900;BME280;60605;53.716;19.940;2023-02-18T21:16:28;99497.30;;;3.25;100.00
57900;BME280;60605;53.716;19.940;2023-02-18T21:21:34;99503.03;;;3.24;100.00
57900;BME280;60605;53.716;19.940;2023-02-18T21:26:38;99503.35;;;3.19;100.00
57900;BME280;60605;53.716;19.940;2023-02-18T21:31:41;99508.99;;;3.08;100.00
57900;BME280;60605;53.716;19.940;2023-02-18T21:36:45;99508.19;;;2.96;100.00
57900;BME280;60605;53.716;19.940;2023-02-18T21:41:48;99520.16;;;2.88;100.00
57900;BME280;60605;53.716;19.940;2023-02-18T21:46:53;99532.92;;;2.83;100.00
57900;BME280;60605;53.716;19.940;2023-02-18T21:51:56;99540.74;;;2.82;100.00
57900;BME280;60605;53.716;19.940;2023-02-18T21:57:03;99537.48;;;2.85;100.00
57900;BME280;60605;53.716;19.940;2023-02-18T22:02:10;99529.94;;;2.89;100.00
57900;BME280;60605;53.716;19.940;2023-02-18T22:07:17;99526.84;;;2.88;100.00
57900;BME280;60605;53.716;19.940;2023-02-18T22:12:22;99530.89;;;2.82;100.00
57900;BME280;60605;53.716;19.940;2023-02-18T22:17:26;99532.02;;;2.76;100.00
57900;BME280;60605;53.716;19.940;2023-02-18T22:22:31;99527.13;;;2.69;100.00
57900;BME280;60605;53.716;19.940;2023-02-18T22:27:34;99528.98;;;2.58;100.00
57900;BME280;60605;53.716;19.940;2023-02-18T22:32:38;99538.33;;;2.42;100.00
57900;BME280;60605;53.716;19.940;2023-02-18T22:37:41;99554.61;;;2.27;100.00
57900;BME280;60605;53.716;19.940;2023-02-18T22:42:44;99565.66;;;2.14;100.00
57900;BME280;60605;53.716;19.940;2023-02-18T22:47:47;99558.17;;;2.05;100.00
57900;BME280;60605;53.716;19.940;2023-02-18T22:52:50;99555.35;;;1.96;100.00
57900;BME280;60605;53.716;19.940;2023-02-18T22:57:53;99561.77;;;1.90;100.00
57900;BME280;60605;53.716;19.940;2023-02-18T23:02:57;99563.67;;;1.83;100.00
57900;BME280;60605;53.716;19.940;2023-02-18T23:08:00;99553.88;;;1.80;100.00
57900;BME280;60605;53.716;19.940;2023-02-18T23:13:04;99564.27;;;1.75;100.00
57900;BME280;60605;53.716;19.940;2023-02-18T23:18:07;99558.83;;;1.70;100.00
57900;BME280;60605;53.716;19.940;2023-02-18T23:23:10;99558.58;;;1.67;100.00
57900;BME280;60605;53.716;19.940;2023-02-18T23:28:13;99558.86;;;1.63;100.00
57900;BME280;60605;53.716;19.940;2023-02-18T23:33:16;99555.06;;;1.62;100.00
57900;BME280;60605;53.716;19.940;2023-02-18T23:38:19;99558.83;;;1.61;100.00
57900;BME280;60605;53.716;19.940;2023-02-18T23:43:22;99566.38;;;1.59;100.00
57900;BME280;60605;53.716;19.940;2023-02-18T23:48:26;99573.25;;;1.56;100.00
57900;BME280;60605;53.716;19.940;2023-02-18T23:53:30;99561.35;;;1.53;100.00
57900;BME280;60605;53.716;19.940;2023-02-18T23:58:35;99563.38;;;1.50;100.00
